Chirk, United Kingdom
Current Conditions -  °F | °C
As of 5:50 AM on Sunday 21 Dec 2014 (Local Time) from EGOS Reporting Station
Broken Clouds Broken Clouds  
Wind Chill: 42°   Ceiling: 1800
Heat Index: 46°   Visibility: 6mi
Dew Point: 41°   Wind: 8mph
Humidity: 81%   Direction: 230°SW
Pressure: 30.27"   Gusts: NA
Location:  52.94°N, 3.06°W
Report Text: EGOS 210550Z AUTO 23007KT 9999 BKN018/// BKN025/// 08/05 Q1025
Loading
Personal Weather Stations






























Interactive Weather Map New forecast layout! Learn more

10-Day Weather Forecast

Advertisements
Track Severe Weather on mobile